Time;durP1;ratioP1;P1;durP2;ratioP2;P2;SDS_P1;SDS_P2;PMS_P1;PMS_P2;Temp;Humidity;BMP_temperature;BMP_pressure;BME280_temperature;BME280_humidity;BME280_pressure;Samples;Min_cycle;Max_cycle;Signal;HPM_P1;HPM_P2
2022/01/18 00:01:12;;;;;;;14.65;5.50;;;;;;;-1.28;100.00;99533.96;2132844;83;21040;-83
2022/01/18 00:04:13;;;;;;;22.75;6.42;;;;;;;-1.35;100.00;99540.38;2088929;85;21054;-82
2022/01/18 00:07:14;;;;;;;10.18;4.80;;;;;;;-1.43;100.00;99540.80;2090397;84;21061;-83
2022/01/18 00:10:15;;;;;;;12.85;5.55;;;;;;;-1.50;100.00;99541.58;2113981;84;21000;-83
2022/01/18 00:13:38;;;;;;;13.58;5.17;;;;;;;-1.56;100.00;99548.31;2079105;85;21028;-83
2022/01/18 00:16:30;;;;;;;12.50;5.72;;;;;;;-1.63;100.00;99555.17;2110951;84;21159;-83
2022/01/18 00:19:30;;;;;;;11.55;5.30;;;;;;;-1.70;100.00;99553.38;2043400;85;22095;-82
2022/01/18 00:22:31;;;;;;;19.52;6.65;;;;;;;-1.79;100.00;99557.27;2126053;84;21016;-82
2022/01/18 00:25:34;;;;;;;13.05;5.97;;;;;;;-1.86;100.00;99561.06;2119999;84;20984;-83
2022/01/18 00:28:36;;;;;;;15.45;5.47;;;;;;;-1.93;100.00;99566.13;2097677;84;21508;-82
2022/01/18 00:34:57;;;;;;;18.62;6.05;;;;;;;-2.03;100.00;99580.36;2114166;84;21091;-84
2022/01/18 00:37:58;;;;;;;15.95;5.65;;;;;;;-2.07;100.00;99580.16;2059277;86;21072;-84
2022/01/18 00:40:59;;;;;;;11.12;5.78;;;;;;;-2.10;100.00;99578.58;2125922;84;21053;-84
2022/01/18 00:44:00;;;;;;;18.05;6.35;;;;;;;-2.12;100.00;99584.22;2082288;85;21547;-85
2022/01/18 00:47:01;;;;;;;20.95;6.87;;;;;;;-2.14;100.00;99595.02;2098247;84;20956;-84
2022/01/18 00:50:03;;;;;;;17.17;5.80;;;;;;;-2.16;100.00;99596.84;2114208;84;21085;-84
2022/01/18 00:53:11;;;;;;;15.63;6.08;;;;;;;-2.17;100.00;99584.92;2069146;85;21587;-84
2022/01/18 00:59:10;;;;;;;21.90;6.17;;;;;;;-2.21;100.00;99609.52;2066635;84;21456;-84
2022/01/18 01:02:11;;;;;;;20.43;6.75;;;;;;;-2.24;100.00;99610.97;2098591;84;21020;-84
2022/01/18 01:05:12;;;;;;;15.28;6.85;;;;;;;-2.28;100.00;99615.44;2117034;84;21019;-83
2022/01/18 01:08:12;;;;;;;23.27;7.90;;;;;;;-2.32;100.00;99619.05;2097930;84;21067;-84
2022/01/18 01:11:13;;;;;;;21.97;7.05;;;;;;;-2.33;100.00;99633.61;2142710;82;21465;-84
2022/01/18 01:14:18;;;;;;;13.50;6.65;;;;;;;-2.33;100.00;99645.61;2142589;83;21017;-84
2022/01/18 01:37:12;;;;;;;17.57;8.00;;;;;;;-2.39;100.00;99642.87;2104595;83;21044;-82
2022/01/18 01:43:14;;;;;;;24.50;7.62;;;;;;;-2.39;100.00;99661.29;2105720;85;21115;-82
2022/01/18 01:46:12;;;;;;;24.37;8.70;;;;;;;-2.39;100.00;99667.70;2100362;85;21089;-83
2022/01/18 01:49:14;;;;;;;25.30;8.80;;;;;;;-2.39;100.00;99663.85;2103262;85;20921;-83
2022/01/18 01:52:15;;;;;;;24.25;7.25;;;;;;;-2.38;100.00;99657.81;2092435;85;20972;-81
2022/01/18 01:55:16;;;;;;;22.13;8.60;;;;;;;-2.39;100.00;99654.42;2104850;85;21560;-82
2022/01/18 01:58:17;;;;;;;26.70;8.40;;;;;;;-2.41;100.00;99652.39;2168313;81;21464;-83
2022/01/18 02:01:18;;;;;;;24.90;8.35;;;;;;;-2.41;100.00;99648.55;2185452;81;21045;-82
2022/01/18 02:04:19;;;;;;;22.80;8.15;;;;;;;-2.41;100.00;99650.28;2185934;81;21595;-82
2022/01/18 02:07:20;;;;;;;20.35;8.95;;;;;;;-2.43;100.00;99650.81;2136335;81;20973;-82
2022/01/18 02:10:21;;;;;;;23.15;8.13;;;;;;;-2.45;100.00;99663.72;2062716;85;21532;-81
2022/01/18 02:13:22;;;;;;;27.17;9.25;;;;;;;-2.46;100.00;99638.16;2060963;85;21055;-82
2022/01/18 02:23:00;;;;;;;29.70;8.68;;;;;;;-2.41;100.00;99645.15;2062015;85;21215;-82
2022/01/18 02:26:01;;;;;;;30.00;9.53;;;;;;;-2.38;100.00;99648.84;2087476;84;20996;-82
2022/01/18 02:29:02;;;;;;;30.17;9.65;;;;;;;-2.35;100.00;99652.10;2040895;87;21657;-82
2022/01/18 02:32:03;;;;;;;24.23;8.70;;;;;;;-2.34;100.00;99642.67;2040795;87;21019;-83
2022/01/18 02:35:04;;;;;;;22.67;8.78;;;;;;;-2.34;100.00;99647.80;2040740;87;21050;-83
2022/01/18 02:38:04;;;;;;;25.75;9.15;;;;;;;-2.32;100.00;99647.27;2084766;84;21694;-83
2022/01/18 02:41:07;;;;;;;20.88;7.17;;;;;;;-2.30;100.00;99644.16;2117747;83;20965;-82
2022/01/18 02:44:08;;;;;;;20.95;8.43;;;;;;;-2.30;100.00;99655.25;2141983;83;21014;-83
2022/01/18 02:47:09;;;;;;;19.82;8.28;;;;;;;-2.32;100.00;99670.35;2157103;81;21463;-83
2022/01/18 02:50:10;;;;;;;23.60;7.80;;;;;;;-2.33;100.00;99672.55;2186059;81;21011;-83
2022/01/18 02:53:11;;;;;;;23.70;7.17;;;;;;;-2.31;100.00;99665.14;2156671;81;20976;-84
2022/01/18 02:56:11;;;;;;;17.65;7.85;;;;;;;-2.31;100.00;99653.59;2128591;82;21040;-83
2022/01/18 02:59:22;;;;;;;12.68;5.10;;;;;;;-2.31;100.00;99643.34;2124180;83;20979;-82
2022/01/18 03:05:40;;;;;;;25.75;7.97;;;;;;;-2.26;100.00;99684.62;2139428;83;22159;-83
2022/01/18 03:08:41;;;;;;;20.77;7.08;;;;;;;-2.23;100.00;99677.59;2139395;83;21058;-83
2022/01/18 03:11:42;;;;;;;22.22;7.62;;;;;;;-2.19;100.00;99674.45;2131297;83;21060;-84
2022/01/18 03:14:43;;;;;;;22.65;8.00;;;;;;;-2.18;100.00;99673.53;2134314;83;20949;-83
2022/01/18 03:17:43;;;;;;;20.48;8.35;;;;;;;-2.17;100.00;99667.04;2134255;83;21100;-83
2022/01/18 03:20:44;;;;;;;18.20;7.03;;;;;;;-2.16;100.00;99681.98;2134298;83;21003;-83
2022/01/18 03:23:51;;;;;;;21.82;8.65;;;;;;;-2.14;100.00;99675.86;2134143;83;21050;-83
2022/01/18 03:30:06;;;;;;;20.00;9.73;;;;;;;-2.16;100.00;99681.53;2134450;83;21028;-83
2022/01/18 03:33:07;;;;;;;18.52;7.30;;;;;;;-2.17;100.00;99671.34;2134368;83;21296;-83
2022/01/18 03:36:08;;;;;;;17.85;8.33;;;;;;;-2.17;100.00;99680.33;2136084;83;20968;-83
2022/01/18 03:39:08;;;;;;;32.50;9.05;;;;;;;-2.16;100.00;99677.68;2136096;83;20980;-83
2022/01/18 03:45:23;;;;;;;24.35;9.18;;;;;;;-2.13;100.00;99692.09;2137583;83;22273;-84
2022/01/18 03:48:37;;;;;;;21.35;8.85;;;;;;;-2.13;100.00;99690.80;2140033;81;21115;-84
2022/01/18 03:51:36;;;;;;;37.05;10.70;;;;;;;-2.13;100.00;99694.66;2097302;85;21575;-83
2022/01/18 03:54:42;;;;;;;27.37;9.28;;;;;;;-2.11;100.00;99693.66;2098460;84;21028;-84
2022/01/18 03:57:39;;;;;;;29.05;10.40;;;;;;;-2.11;100.00;99697.52;2097927;85;21528;-84
2022/01/18 04:00:40;;;;;;;16.73;7.92;;;;;;;-2.11;100.00;99694.94;2098700;85;21008;-83
2022/01/18 04:03:40;;;;;;;14.50;6.30;;;;;;;-2.11;100.00;99700.08;2071145;85;21074;-83
2022/01/18 04:06:41;;;;;;;19.20;7.92;;;;;;;-2.14;100.00;99718.20;2062167;86;21045;-84
2022/01/18 04:09:42;;;;;;;20.68;6.70;;;;;;;-2.10;100.00;99718.91;2068626;85;21041;-82
2022/01/18 04:12:42;;;;;;;20.70;7.03;;;;;;;-2.06;100.00;99722.97;2066684;86;21030;-83
2022/01/18 04:15:43;;;;;;;19.95;6.92;;;;;;;-2.04;100.00;99723.26;2127174;84;20971;-84
2022/01/18 04:18:54;;;;;;;20.90;6.60;;;;;;;-2.02;100.00;99718.87;2153147;81;21036;-84
2022/01/18 04:31:37;;;;;;;14.53;7.08;;;;;;;-1.98;100.00;99729.84;2127459;84;20981;-84
2022/01/18 04:34:40;;;;;;;22.05;8.10;;;;;;;-1.97;100.00;99725.08;2127329;84;21052;-84
2022/01/18 04:37:40;;;;;;;21.75;7.58;;;;;;;-1.96;100.00;99738.28;2138742;81;21079;-84
2022/01/18 04:40:44;;;;;;;26.87;8.15;;;;;;;-1.96;100.00;99738.28;2102997;81;21472;-84
2022/01/18 04:43:52;;;;;;;18.35;8.23;;;;;;;-1.95;100.00;99747.64;2082828;85;21552;-83
2022/01/18 04:50:05;;;;;;;16.12;8.35;;;;;;;-1.96;100.00;99739.57;2060960;85;21057;-83
2022/01/18 04:53:06;;;;;;;22.07;10.53;;;;;;;-1.95;100.00;99752.78;2145606;82;21503;-84
2022/01/18 04:56:10;;;;;;;22.37;9.88;;;;;;;-1.94;100.00;99751.87;2153904;82;20949;-84
2022/01/18 04:59:09;;;;;;;24.90;10.88;;;;;;;-1.93;100.00;99756.09;2148777;82;21508;-83
2022/01/18 05:02:10;;;;;;;30.37;10.20;;;;;;;-1.89;100.00;99760.19;2156914;82;21031;-83
2022/01/18 05:05:18;;;;;;;28.92;9.88;;;;;;;-1.84;100.00;99752.24;2114447;84;21464;-83
2022/01/18 05:08:14;;;;;;;19.25;9.55;;;;;;;-1.81;100.00;99753.40;2113183;83;21084;-84
2022/01/18 05:11:18;;;;;;;24.77;10.03;;;;;;;-1.81;100.00;99772.20;2079189;86;21069;-84
2022/01/18 05:14:28;;;;;;;21.12;9.05;;;;;;;-1.78;100.00;99781.02;2081893;84;21085;-83
2022/01/18 05:17:40;;;;;;;30.60;11.97;;;;;;;-1.73;100.00;99788.52;2089781;85;21532;-84
2022/01/18 05:23:55;;;;;;;22.85;9.78;;;;;;;-1.69;100.00;99798.17;1994143;89;21040;-83
2022/01/18 05:26:56;;;;;;;26.97;10.40;;;;;;;-1.66;100.00;99798.02;1961919;91;20994;-82
2022/01/18 05:29:57;;;;;;;12.85;7.83;;;;;;;-1.64;100.00;99799.62;1964368;89;21061;-81
2022/01/18 05:32:58;;;;;;;15.40;9.13;;;;;;;-1.64;100.00;99788.06;2005384;89;21119;-82
2022/01/18 05:35:58;;;;;;;17.77;8.78;;;;;;;-1.62;100.00;99796.52;2005458;89;21719;-81
2022/01/18 05:38:59;;;;;;;21.17;11.05;;;;;;;-1.59;100.00;99792.50;2005392;89;21097;-82
2022/01/18 05:42:00;;;;;;;25.40;10.45;;;;;;;-1.58;100.00;99797.17;1988145;89;21558;-82
2022/01/18 05:45:01;;;;;;;29.32;11.80;;;;;;;-1.56;100.00;99795.36;1994461;89;21036;-83
2022/01/18 05:48:02;;;;;;;19.05;9.53;;;;;;;-1.52;100.00;99804.59;1994389;89;21752;-83
2022/01/18 05:51:02;;;;;;;20.05;10.93;;;;;;;-1.49;100.00;99800.11;1994407;89;21110;-83
2022/01/18 05:54:03;;;;;;;18.50;11.05;;;;;;;-1.47;100.00;99802.14;2024914;84;21469;-82
2022/01/18 05:57:04;;;;;;;19.27;9.98;;;;;;;-1.42;100.00;99800.65;2094679;85;21021;-83
2022/01/18 06:00:05;;;;;;;20.75;10.18;;;;;;;-1.44;100.00;99799.90;2094662;85;21071;-82
2022/01/18 06:03:24;;;;;;;18.50;9.08;;;;;;;-1.37;100.00;99805.53;2120367;83;21060;-83
2022/01/18 06:09:34;;;;;;;16.50;9.60;;;;;;;-1.33;100.00;99816.05;2117105;84;21074;-82
2022/01/18 06:12:35;;;;;;;19.25;9.95;;;;;;;-1.31;100.00;99826.63;2104966;85;21015;-83
2022/01/18 06:15:36;;;;;;;17.35;8.63;;;;;;;-1.26;100.00;99841.83;2104381;85;21090;-83
2022/01/18 06:18:37;;;;;;;19.07;9.38;;;;;;;-1.26;100.00;99837.52;2133329;83;21046;-83
2022/01/18 06:21:38;;;;;;;16.87;9.33;;;;;;;-1.29;100.00;99823.97;2140848;83;21045;-83
2022/01/18 06:24:39;;;;;;;20.32;9.60;;;;;;;-1.27;100.00;99835.86;2135651;83;20973;-83
2022/01/18 06:27:40;;;;;;;25.92;9.78;;;;;;;-1.28;100.00;99834.63;2111810;84;21088;-83
2022/01/18 06:30:40;;;;;;;19.60;9.00;;;;;;;-1.27;100.00;99838.42;2097417;85;21020;-83
2022/01/18 06:33:41;;;;;;;15.72;9.70;;;;;;;-1.21;100.00;99848.83;2110826;84;21425;-82
2022/01/18 06:36:42;;;;;;;19.67;10.80;;;;;;;-1.13;100.00;99865.98;2104948;83;21039;-82
2022/01/18 06:39:43;;;;;;;19.80;10.50;;;;;;;-1.13;100.00;99864.70;2128576;84;20973;-82
2022/01/18 06:42:44;;;;;;;18.48;10.03;;;;;;;-1.12;100.00;99874.52;2128555;84;21075;-83
2022/01/18 06:45:44;;;;;;;26.07;13.55;;;;;;;-1.10;100.00;99882.98;2128638;84;21472;-82
2022/01/18 06:48:46;;;;;;;29.85;13.28;;;;;;;-1.07;100.00;99882.39;2128407;84;20996;-83
2022/01/18 06:51:47;;;;;;;33.10;15.18;;;;;;;-1.04;100.00;99887.83;2128944;84;20992;-82
2022/01/18 06:54:48;;;;;;;35.40;15.75;;;;;;;-1.01;100.00;99897.95;2125983;84;21100;-82
2022/01/18 06:57:49;;;;;;;33.55;14.50;;;;;;;-0.96;100.00;99910.95;2149800;83;20922;-83
2022/01/18 07:00:49;;;;;;;27.40;12.18;;;;;;;-0.92;100.00;99914.19;2102598;83;21037;-81
2022/01/18 07:03:50;;;;;;;21.93;10.65;;;;;;;-0.92;100.00;99915.47;2151457;83;21073;-82
2022/01/18 07:06:51;;;;;;;24.25;12.47;;;;;;;-0.90;100.00;99944.55;2183071;81;20980;-84
2022/01/18 07:09:52;;;;;;;23.77;10.40;;;;;;;-0.90;100.00;99917.08;2141559;83;21040;-83
2022/01/18 07:12:56;;;;;;;23.05;11.88;;;;;;;-0.84;100.00;99930.52;2145347;83;21016;-83
2022/01/18 07:15:55;;;;;;;27.75;13.48;;;;;;;-0.80;100.00;99935.91;2145346;82;20992;-83
2022/01/18 07:18:56;;;;;;;31.52;13.10;;;;;;;-0.76;100.00;99941.25;2144462;83;21092;-83
2022/01/18 07:21:56;;;;;;;31.52;13.88;;;;;;;-0.72;100.00;99953.06;2144120;83;21506;-82
2022/01/18 07:24:59;;;;;;;24.90;11.38;;;;;;;-0.69;100.00;99947.75;2144011;83;21116;-82
2022/01/18 07:28:00;;;;;;;17.17;10.20;;;;;;;-0.69;100.00;99952.90;2144012;83;21582;-83
2022/01/18 07:31:01;;;;;;;22.75;12.60;;;;;;;-0.67;100.00;99951.07;2187624;81;21061;-81
2022/01/18 07:34:01;;;;;;;24.67;13.50;;;;;;;-0.66;100.00;99961.28;2132470;83;22646;-81
2022/01/18 07:37:02;;;;;;;26.45;13.98;;;;;;;-0.64;100.00;99972.77;2107792;84;21047;-82
2022/01/18 07:40:03;;;;;;;22.52;13.18;;;;;;;-0.59;100.00;99967.78;2151378;83;21484;-82
2022/01/18 07:43:04;;;;;;;27.42;11.88;;;;;;;-0.57;100.00;99977.53;2151664;83;21088;-84
2022/01/18 07:46:05;;;;;;;22.67;13.00;;;;;;;-0.55;100.00;99978.73;2151519;83;21549;-82
2022/01/18 07:49:06;;;;;;;34.90;15.03;;;;;;;-0.52;100.00;99990.18;2151554;83;21008;-81
2022/01/18 07:52:07;;;;;;;27.98;17.10;;;;;;;-0.52;100.00;99987.61;2151584;83;20969;-84
2022/01/18 07:55:08;;;;;;;33.50;16.40;;;;;;;-0.50;100.00;99993.50;2151214;81;20977;-82
2022/01/18 07:58:08;;;;;;;29.70;17.87;;;;;;;-0.47;100.00;99997.19;2137455;81;20989;-82
2022/01/18 08:01:09;;;;;;;27.17;14.07;;;;;;;-0.40;100.00;99997.72;2136719;83;20986;-85
2022/01/18 08:04:10;;;;;;;21.10;12.65;;;;;;;-0.35;100.00;99999.61;2076974;86;21072;-82
2022/01/18 08:07:11;;;;;;;25.65;12.85;;;;;;;-0.30;100.00;100014.34;2087383;84;21451;-84
2022/01/18 08:10:11;;;;;;;24.27;12.50;;;;;;;-0.29;100.00;100021.98;2051214;87;21052;-83
2022/01/18 08:13:12;;;;;;;18.73;10.08;;;;;;;-0.23;100.00;100026.45;2085324;85;21003;-82
2022/01/18 08:19:23;;;;;;;25.80;12.05;;;;;;;-0.15;100.00;100034.16;2092726;85;21012;-82
2022/01/18 08:22:24;;;;;;;26.23;12.75;;;;;;;-0.09;100.00;100033.84;2092369;85;21710;-83
2022/01/18 08:25:24;;;;;;;29.00;14.43;;;;;;;-0.07;100.00;100030.73;2111102;84;21015;-82
2022/01/18 08:28:25;;;;;;;34.27;16.27;;;;;;;-0.03;100.00;100034.80;2145355;83;21040;-82
2022/01/18 08:31:26;;;;;;;34.80;17.92;;;;;;;0.01;100.00;100037.23;2110920;84;21039;-83
2022/01/18 08:34:27;;;;;;;40.78;17.50;;;;;;;0.06;100.00;100046.36;2133914;83;20921;-84
2022/01/18 08:37:28;;;;;;;34.73;15.15;;;;;;;0.10;100.00;100049.63;2083801;85;21025;-85
2022/01/18 08:40:29;;;;;;;39.60;17.80;;;;;;;0.15;100.00;100054.89;2083868;85;21116;-84
2022/01/18 08:43:33;;;;;;;38.95;18.35;;;;;;;0.24;100.00;100056.15;2083669;85;21072;-83
2022/01/18 08:46:34;;;;;;;34.15;16.15;;;;;;;0.34;100.00;100062.92;2104211;84;21052;-86
2022/01/18 08:49:34;;;;;;;30.50;15.68;;;;;;;0.39;100.00;100070.80;2144506;83;21104;-87
2022/01/18 08:52:35;;;;;;;34.95;17.57;;;;;;;0.46;100.00;100076.01;2069428;84;21466;-85
2022/01/18 08:55:36;;;;;;;26.10;14.20;;;;;;;0.51;100.00;100088.63;2034871;87;21116;-86
2022/01/18 08:58:37;;;;;;;40.15;16.85;;;;;;;0.56;100.00;100091.80;2030379;88;21054;-85
2022/01/18 09:01:38;;;;;;;28.12;15.28;;;;;;;0.54;100.00;100088.45;2045916;86;21057;-85
2022/01/18 09:04:38;;;;;;;30.02;14.33;;;;;;;0.57;100.00;100089.60;2141952;83;20996;-84
2022/01/18 09:07:40;;;;;;;34.35;15.78;;;;;;;0.61;100.00;100098.81;2134443;83;21487;-85
2022/01/18 09:10:41;;;;;;;26.02;14.50;;;;;;;0.66;100.00;100092.97;2091614;85;21087;-84
2022/01/18 09:13:41;;;;;;;24.67;12.78;;;;;;;0.71;100.00;100108.17;2078829;85;20985;-84
2022/01/18 09:16:42;;;;;;;26.95;14.13;;;;;;;0.72;100.00;100105.97;2062364;86;21048;-85
2022/01/18 09:19:43;;;;;;;24.12;12.20;;;;;;;0.76;100.00;100110.05;2098632;85;20975;-85
2022/01/18 09:22:44;;;;;;;33.98;14.58;;;;;;;0.78;100.00;100108.22;2062399;86;21051;-85
2022/01/18 09:25:45;;;;;;;26.33;13.72;;;;;;;0.79;100.00;100121.02;2098501;84;21081;-88
2022/01/18 09:28:46;;;;;;;23.70;13.05;;;;;;;0.87;100.00;100130.09;2062259;86;21071;-80
2022/01/18 09:31:47;;;;;;;30.57;15.55;;;;;;;0.91;100.00;100131.58;2098579;85;21012;-88
2022/01/18 09:34:48;;;;;;;20.37;11.80;;;;;;;0.97;100.00;100127.38;2054956;86;21116;-83
2022/01/18 09:37:49;;;;;;;25.65;13.40;;;;;;;1.01;100.00;100127.15;2099011;83;21056;-83
2022/01/18 09:40:49;;;;;;;22.50;12.78;;;;;;;1.05;100.00;100131.67;2098412;84;21001;-83
2022/01/18 09:43:50;;;;;;;28.57;14.68;;;;;;;1.10;100.00;100140.00;2091636;84;21049;-83
2022/01/18 09:46:51;;;;;;;25.27;13.00;;;;;;;1.18;100.00;100144.70;2146671;82;21427;-83
2022/01/18 09:49:51;;;;;;;28.80;15.93;;;;;;;1.20;100.00;100152.76;2163892;82;20977;-82
2022/01/18 09:52:54;;;;;;;30.65;16.07;;;;;;;1.22;100.00;100163.82;2147758;82;20986;-83
2022/01/18 09:55:55;;;;;;;22.93;12.63;;;;;;;1.20;100.00;100152.76;2147043;82;21047;-82
2022/01/18 09:58:56;;;;;;;29.07;15.10;;;;;;;1.21;100.00;100154.42;2152174;83;21531;-82
2022/01/18 10:01:57;;;;;;;23.07;12.10;;;;;;;1.24;100.00;100152.12;2152346;83;21084;-81
2022/01/18 10:04:59;;;;;;;25.08;13.35;;;;;;;1.28;100.00;100151.88;2152285;83;21056;-82
2022/01/18 10:08:00;;;;;;;29.02;14.63;;;;;;;1.32;100.00;100147.36;2147661;83;21052;-83
2022/01/18 10:11:02;;;;;;;24.75;13.72;;;;;;;1.45;100.00;100151.36;2141066;83;20981;-82
2022/01/18 10:14:03;;;;;;;27.42;14.20;;;;;;;1.54;100.00;100156.84;2140851;83;20981;-82
2022/01/18 10:17:03;;;;;;;31.25;13.28;;;;;;;1.65;100.00;100149.34;2140981;83;21531;-82
2022/01/18 10:20:04;;;;;;;36.30;16.90;;;;;;;1.80;100.00;100157.93;2094857;85;21073;-82
2022/01/18 10:23:05;;;;;;;29.27;14.30;;;;;;;1.87;100.00;100145.04;2094833;85;21109;-82
2022/01/18 10:26:08;;;;;;;39.03;17.65;;;;;;;1.94;100.00;100161.85;2075344;85;22065;-85
2022/01/18 10:29:09;;;;;;;27.67;13.43;;;;;;;1.96;100.00;100152.71;2095078;85;21567;-86
2022/01/18 10:32:25;;;;;;;29.87;13.90;;;;;;;1.88;100.00;100152.33;2079980;85;21005;-83
2022/01/18 10:35:21;;;;;;;33.25;13.83;;;;;;;1.87;100.00;100142.92;2091359;85;21048;-87
2022/01/18 10:38:22;;;;;;;29.40;15.40;;;;;;;1.88;100.00;100144.58;2140057;83;21555;-84
2022/01/18 10:41:24;;;;;;;29.82;15.43;;;;;;;1.92;100.00;100149.92;2161300;82;20957;-85
2022/01/18 10:44:24;;;;;;;25.23;13.50;;;;;;;1.89;100.00;100154.81;2142434;83;21043;-85
2022/01/18 10:47:25;;;;;;;29.27;11.65;;;;;;;1.92;100.00;100166.28;2115029;84;21475;-83
2022/01/18 10:50:26;;;;;;;36.45;14.63;;;;;;;1.87;100.00;100170.04;2114971;84;21031;-82
2022/01/18 10:53:26;;;;;;;32.10;14.55;;;;;;;1.83;100.00;100172.41;2115202;83;21048;-86
2022/01/18 10:56:27;;;;;;;26.07;12.85;;;;;;;1.86;100.00;100175.66;2146733;82;21132;-84
2022/01/18 10:59:28;;;;;;;27.67;13.70;;;;;;;1.88;100.00;100176.86;2138485;83;21048;-84
2022/01/18 11:02:29;;;;;;;28.87;12.43;;;;;;;1.91;100.00;100176.22;2135867;83;21104;-83
2022/01/18 11:05:31;;;;;;;30.37;13.58;;;;;;;1.94;100.00;100185.10;2115659;83;22562;-83
2022/01/18 11:08:31;;;;;;;27.70;13.32;;;;;;;1.96;100.00;100182.42;2135658;83;20945;-83
2022/01/18 11:11:32;;;;;;;33.55;13.55;;;;;;;2.09;100.00;100187.23;2135784;83;21007;-83
2022/01/18 11:14:36;;;;;;;36.30;14.43;;;;;;;2.19;100.00;100193.52;2136458;83;20970;-83
2022/01/18 11:17:40;;;;;;;27.27;12.30;;;;;;;2.24;100.00;100185.05;2146455;83;21059;-84
2022/01/18 11:20:42;;;;;;;29.72;13.22;;;;;;;2.33;100.00;100181.09;2148326;83;20972;-82
2022/01/18 11:23:43;;;;;;;27.98;14.53;;;;;;;2.32;100.00;100185.89;2148838;83;20960;-84
2022/01/18 11:26:45;;;;;;;28.30;13.72;;;;;;;2.28;100.00;100194.73;2149050;83;20995;-82
2022/01/18 11:29:47;;;;;;;24.02;13.05;;;;;;;2.20;100.00;100184.88;2148753;83;21040;-82
2022/01/18 11:32:48;;;;;;;20.85;9.40;;;;;;;2.17;100.00;100191.95;2144836;83;20999;-82
2022/01/18 11:35:48;;;;;;;16.50;9.15;;;;;;;2.08;100.00;100186.86;2144653;83;20997;-82
2022/01/18 11:38:50;;;;;;;20.85;10.30;;;;;;;2.07;100.00;100184.38;2142513;83;20976;-81
2022/01/18 11:41:51;;;;;;;22.25;9.85;;;;;;;2.12;100.00;100196.58;2142597;83;21028;-82
2022/01/18 11:44:52;;;;;;;21.33;10.60;;;;;;;2.14;100.00;100193.44;2126516;83;20976;-82
2022/01/18 11:47:52;;;;;;;31.37;15.48;;;;;;;2.17;100.00;100198.41;2120057;84;21051;-82
2022/01/18 11:50:53;;;;;;;24.20;12.68;;;;;;;2.17;100.00;100204.88;2120618;84;20993;-82
2022/01/18 11:54:05;;;;;;;26.12;13.68;;;;;;;2.16;100.00;100214.84;2135941;83;20989;-83
2022/01/18 11:56:57;;;;;;;31.23;13.98;;;;;;;2.17;100.00;100209.58;2145293;82;21139;-82
2022/01/18 11:59:58;;;;;;;29.82;13.85;;;;;;;2.16;100.00;100213.09;2147858;83;20974;-82
2022/01/18 12:02:59;;;;;;;26.23;13.68;;;;;;;2.15;100.00;100224.81;2150388;83;21053;-83
2022/01/18 12:06:00;;;;;;;23.98;13.00;;;;;;;2.16;100.00;100220.84;2144274;83;20984;-82
2022/01/18 12:09:00;;;;;;;26.77;14.38;;;;;;;2.20;100.00;100224.10;2141487;83;21016;-83
2022/01/18 12:12:01;;;;;;;24.30;13.48;;;;;;;2.16;100.00;100223.42;2139433;83;21049;-82
2022/01/18 12:15:02;;;;;;;23.70;11.78;;;;;;;2.15;100.00;100223.06;2147447;83;21016;-81
2022/01/18 12:18:03;;;;;;;29.57;14.55;;;;;;;2.03;100.00;100223.78;2139221;83;20946;-81
2022/01/18 12:21:05;;;;;;;21.00;12.73;;;;;;;1.97;100.00;100229.30;2155942;81;21008;-82
2022/01/18 12:24:06;;;;;;;23.45;13.03;;;;;;;1.99;100.00;100222.28;2140549;83;21544;-83
2022/01/18 12:27:10;;;;;;;30.35;12.60;;;;;;;1.94;100.00;100228.19;2140473;83;21001;-80
2022/01/18 12:30:14;;;;;;;27.82;13.62;;;;;;;1.90;100.00;100231.84;2140398;83;21681;-82
2022/01/18 12:33:12;;;;;;;24.00;13.60;;;;;;;1.85;100.00;100239.05;2141377;83;21593;-81
2022/01/18 12:36:13;;;;;;;25.97;14.45;;;;;;;1.84;100.00;100231.76;2139650;83;21016;-81
2022/01/18 12:39:14;;;;;;;26.02;14.40;;;;;;;1.87;100.00;100232.03;2141862;83;20992;-81
2022/01/18 12:44:20;;;;;;;28.47;15.68;;;;;;;1.97;100.00;100233.17;2139808;83;21457;-81
2022/01/18 12:45:19;;;;;;;29.85;15.70;;;;;;;1.99;100.00;100233.91;2136054;83;20972;-81
2022/01/18 12:48:20;;;;;;;26.68;14.07;;;;;;;2.10;100.00;100239.73;2141566;83;21032;-81
2022/01/18 12:51:21;;;;;;;30.88;13.22;;;;;;;2.11;100.00;100233.22;2145098;83;21515;-81
2022/01/18 12:54:22;;;;;;;28.73;13.28;;;;;;;2.00;100.00;100235.10;2144203;83;20964;-81
2022/01/18 12:57:23;;;;;;;28.35;14.35;;;;;;;2.01;100.00;100247.56;2143400;83;21617;-81
2022/01/18 13:00:24;;;;;;;22.80;11.83;;;;;;;2.02;100.00;100245.38;2140373;83;21023;-83
2022/01/18 13:03:25;;;;;;;21.33;11.25;;;;;;;1.96;100.00;100246.55;2139865;83;20980;-82
2022/01/18 13:06:25;;;;;;;23.12;12.18;;;;;;;1.95;100.00;100258.27;2139819;83;20956;-83
2022/01/18 13:09:26;;;;;;;22.80;11.60;;;;;;;1.88;100.00;100257.77;2139705;83;20979;-83
2022/01/18 13:12:27;;;;;;;30.02;14.20;;;;;;;1.83;100.00;100254.63;2149907;83;21321;-80
2022/01/18 13:15:35;;;;;;;27.50;12.88;;;;;;;1.83;100.00;100261.09;2153801;83;20982;-80
2022/01/18 13:25:12;;;;;;;24.67;13.62;;;;;;;1.86;100.00;100262.20;2151741;83;21559;-83
2022/01/18 13:28:11;;;;;;;25.70;13.70;;;;;;;1.78;100.00;100270.84;2146512;82;20967;-81
2022/01/18 13:31:12;;;;;;;37.58;15.85;;;;;;;1.72;100.00;100278.91;2139822;83;21051;-80
2022/01/18 13:34:15;;;;;;;29.55;15.38;;;;;;;1.70;100.00;100276.42;2139884;83;20961;-83
2022/01/18 13:37:16;;;;;;;27.90;15.68;;;;;;;1.71;100.00;100281.13;2139637;83;21016;-82
2022/01/18 13:40:18;;;;;;;27.02;14.45;;;;;;;1.70;100.00;100287.21;2139897;83;20976;-81
2022/01/18 13:43:19;;;;;;;25.32;13.40;;;;;;;1.70;100.00;100296.25;2140452;83;21140;-82
2022/01/18 13:46:20;;;;;;;27.13;13.98;;;;;;;1.57;100.00;100299.98;2116196;84;21088;-82
2022/01/18 13:49:21;;;;;;;22.62;12.70;;;;;;;1.50;100.00;100296.52;2140427;83;20957;-82
2022/01/18 13:52:22;;;;;;;21.97;11.80;;;;;;;1.51;100.00;100297.72;2143269;83;20996;-83
2022/01/18 13:55:23;;;;;;;28.50;16.35;;;;;;;1.45;100.00;100296.75;2143843;83;20952;-84
2022/01/18 13:58:24;;;;;;;23.85;13.85;;;;;;;1.36;100.00;100305.82;2134878;83;21033;-83
2022/01/18 14:01:26;;;;;;;22.87;13.70;;;;;;;1.35;100.00;100317.06;2140136;83;20983;-85
2022/01/18 14:04:29;;;;;;;23.65;11.93;;;;;;;1.35;100.00;100312.36;2134245;83;21000;-83
2022/01/18 14:07:30;;;;;;;18.85;10.30;;;;;;;1.33;100.00;100311.16;2090070;85;21061;-84
2022/01/18 14:10:30;;;;;;;26.02;13.75;;;;;;;1.30;100.00;100319.53;2062568;85;21563;-81
2022/01/18 14:13:36;;;;;;;23.15;13.35;;;;;;;1.25;100.00;100322.34;2146849;83;20997;-79
2022/01/18 14:16:36;;;;;;;25.45;13.83;;;;;;;1.22;100.00;100332.84;2148351;82;21107;-81
2022/01/18 14:19:41;;;;;;;25.25;13.03;;;;;;;1.22;100.00;100338.00;2148648;83;20993;-83
2022/01/18 14:22:39;;;;;;;29.35;15.08;;;;;;;1.19;100.00;100339.89;2140646;82;20996;-83
2022/01/18 14:25:40;;;;;;;37.70;19.50;;;;;;;1.19;100.00;100339.47;2138646;83;21559;-81
2022/01/18 14:28:41;;;;;;;26.48;14.55;;;;;;;1.18;100.00;100338.23;2136468;83;20965;-81
2022/01/18 14:31:42;;;;;;;27.52;14.70;;;;;;;1.17;100.00;100352.87;2091240;85;21065;-80
2022/01/18 14:34:43;;;;;;;28.92;14.53;;;;;;;1.13;100.00;100355.25;2134727;83;20949;-81
2022/01/18 14:37:44;;;;;;;29.30;15.65;;;;;;;1.06;100.00;100360.34;2134670;83;20997;-83
2022/01/18 14:40:45;;;;;;;29.95;17.37;;;;;;;1.00;100.00;100355.49;2134478;83;21004;-80
2022/01/18 14:43:46;;;;;;;25.30;14.07;;;;;;;0.97;100.00;100362.11;2134556;83;21159;-81
2022/01/18 14:47:24;;;;;;;29.77;16.15;;;;;;;0.93;100.00;100361.45;2134526;83;21437;-81
2022/01/18 14:49:58;;;;;;;24.27;15.25;;;;;;;0.91;100.00;100359.37;2137776;82;21095;-81
2022/01/18 14:52:59;;;;;;;26.97;15.63;;;;;;;0.91;100.00;100369.69;2139727;82;21005;-81
2022/01/18 14:56:00;;;;;;;30.95;16.30;;;;;;;0.82;100.00;100366.29;2139441;83;21052;-80
2022/01/18 14:59:01;;;;;;;28.57;15.90;;;;;;;0.77;100.00;100372.16;2139478;83;21093;-81
2022/01/18 15:02:01;;;;;;;28.27;14.90;;;;;;;0.72;100.00;100362.51;2139435;83;21002;-79